This is the latest recevied weather packets stored in our database for station/object Ad4UU. If no packets are shown the sender has not sent any weather packets the latest 10 day(s).
| Time | Temp. | Humidity | Pressure | Rain* | Wind** | Luminosity | Snow |
|---|---|---|---|---|---|---|---|
| 1777947033 | 21.67° C | 66% | 1017.6 hPa | 0 mm | - | - | - |
| 1777946448 | 22.22° C | 65% | 1017.5 hPa | 0 mm | - | - | - |
| 1777944031 | 22.78° C | 62% | 1016.8 hPa | 0 mm | - | - | - |
| 1777942531 | 23.33° C | 60% | 1016.4 hPa | 0 mm | - | - | - |
| 1777941630 | 23.89° C | 59% | 1016.4 hPa | 0 mm | - | - | - |
| 1777940731 | 24.44° C | 58% | 1016.3 hPa | 0 mm | - | - | - |
| 1777939249 | 25° C | 56% | 1016.1 hPa | 0 mm | - | - | - |
| 1777938631 | 25° C | 56% | 1016 hPa | 0 mm | - | - | - |
| 1777936548 | 26.11° C | 53% | 1015.6 hPa | 0 mm | - | - | - |
| 1777934749 | 26.67° C | 48% | 1015.6 hPa | 0 mm | - | - | - |
| 1777934131 | 27.22° C | 46% | 1015.5 hPa | 0 mm | - | - | - |
| 1777933533 | 28.33° C | 43% | 1015.2 hPa | 0 mm | - | - | - |
| 1777930250 | 28.33° C | 43% | 1015.6 hPa | 0 mm | - | - | - |
| 1777929351 | 27.78° C | 42% | 1015.7 hPa | 0 mm | - | - | - |
| 1777925134 | 28.33° C | 41% | 1016.1 hPa | 0 mm | - | - | - |
| 1777923330 | 28.89° C | 42% | 1016.5 hPa | 0 mm | - | - | - |
| 1777921833 | 28.89° C | 40% | 1016.8 hPa | 0 mm | - | - | - |
| 1777920030 | 27.78° C | 37% | 1017.4 hPa | 0 mm | - | - | - |
| 1777919448 | 27.78° C | 39% | 1017.4 hPa | 0 mm | - | - | - |
| 1777918829 | 27.78° C | 38% | 1017.7 hPa | 0 mm | - | - | - |
| 1777918553 | 28.33° C | 37% | 1017.8 hPa | 0 mm | - | - | - |
| 1777917329 | 27.78° C | 38% | 1017.9 hPa | 0 mm | - | - | - |
| 1777916429 | 27.78° C | 37% | 1018 hPa | 0 mm | - | - | - |
| 1777915230 | 27.22° C | 38% | 1018.2 hPa | 0 mm | - | - | - |
| 1777913731 | 26.11° C | 43% | 1018.6 hPa | 0 mm | - | - | - |
* Rain latest hour (hover to see other rain measurements)
** Current wind speed in m/s (hover to see current wind gust speed)